Time;durP1;ratioP1;P1;durP2;ratioP2;P2;SDS_P1;SDS_P2;PMS_P1;PMS_P2;Temp;Humidity;BMP_temperature;BMP_pressure;BME280_temperature;BME280_humidity;BME280_pressure;Samples;Min_cycle;Max_cycle;Signal;HPM_P1;HPM_P2
2023/08/02 00:02:02;;;;;;;12.90;7.22;;;;;;;23.10;51.83;100125.50;5025627;28;20131;-37
2023/08/02 00:04:29;;;;;;;14.02;7.25;;;;;;;23.10;51.65;100127.38;5028983;28;20059;-37
2023/08/02 00:06:56;;;;;;;12.75;7.03;;;;;;;23.08;51.52;100138.41;5028444;28;20062;-37
2023/08/02 00:09:22;;;;;;;11.80;6.82;;;;;;;23.08;51.94;100146.50;5025125;28;20077;-39
2023/08/02 00:11:50;;;;;;;13.55;7.68;;;;;;;23.07;51.52;100147.53;5025577;28;20064;-38
2023/08/02 00:14:17;;;;;;;12.85;7.20;;;;;;;23.07;52.04;100144.81;5025750;28;20341;-37
2023/08/02 00:16:44;;;;;;;14.57;7.32;;;;;;;23.06;51.69;100140.47;5026351;28;20053;-38
2023/08/02 00:19:11;;;;;;;11.20;6.78;;;;;;;23.05;51.77;100125.28;5028308;28;20120;-36
2023/08/02 00:21:41;;;;;;;11.30;6.95;;;;;;;23.04;51.62;100126.34;5027174;28;20128;-38
2023/08/02 00:24:07;;;;;;;15.82;7.20;;;;;;;23.04;51.81;100122.81;5028155;28;20057;-36
2023/08/02 00:26:34;;;;;;;12.63;6.70;;;;;;;23.03;51.39;100116.53;5024684;28;20041;-36
2023/08/02 00:29:01;;;;;;;10.70;6.43;;;;;;;23.02;51.69;100105.94;5026781;28;20089;-37
2023/08/02 00:31:27;;;;;;;11.90;6.32;;;;;;;23.01;52.20;100110.50;5028334;28;20137;-38
2023/08/02 00:33:54;;;;;;;11.23;5.95;;;;;;;23.01;51.51;100113.22;5026364;28;20069;-35
2023/08/02 00:36:21;;;;;;;10.77;6.47;;;;;;;23.01;52.13;100120.50;5026772;28;20496;-35
2023/08/02 00:38:48;;;;;;;9.20;6.13;;;;;;;23.00;51.91;100119.66;5026857;28;20060;-35
2023/08/02 00:41:14;;;;;;;11.27;6.78;;;;;;;23.00;51.77;100118.84;5028039;28;20502;-36
2023/08/02 00:43:43;;;;;;;10.25;6.10;;;;;;;23.00;51.79;100118.84;5025870;28;20103;-38
2023/08/02 00:46:12;;;;;;;11.57;6.13;;;;;;;22.99;51.82;100114.44;5025336;28;20080;-36
2023/08/02 00:48:40;;;;;;;10.27;6.30;;;;;;;22.98;51.98;100110.91;5026001;28;20066;-37
2023/08/02 00:51:08;;;;;;;9.55;5.72;;;;;;;22.97;52.10;100108.44;5025153;28;20132;-37
2023/08/02 00:53:34;;;;;;;9.68;5.85;;;;;;;22.97;52.08;100108.44;5026746;28;20099;-37
2023/08/02 00:56:02;;;;;;;11.68;6.00;;;;;;;22.94;52.14;100106.97;5025958;28;20400;-36
2023/08/02 00:58:28;;;;;;;11.48;6.10;;;;;;;22.96;52.17;100104.06;5023983;28;20503;-36
2023/08/02 01:00:55;;;;;;;9.23;5.38;;;;;;;22.95;51.89;100096.97;5032812;28;20136;-36
2023/08/02 01:03:22;;;;;;;9.85;5.35;;;;;;;22.94;51.80;100098.84;5033715;28;20381;-36
2023/08/02 01:05:58;;;;;;;10.85;5.28;;;;;;;22.94;51.94;100100.72;5027274;28;20076;-36
2023/08/02 01:08:33;;;;;;;9.10;5.72;;;;;;;22.93;52.35;100099.06;5023789;28;20073;-36
2023/08/02 01:11:14;;;;;;;9.85;5.38;;;;;;;22.92;52.10;100089.28;5029282;28;20041;-37
2023/08/02 01:13:47;;;;;;;9.98;5.25;;;;;;;22.92;52.07;100084.72;5026644;28;20514;-36
2023/08/02 01:16:15;;;;;;;9.25;4.82;;;;;;;22.92;52.01;100100.09;5027020;28;20049;-36
2023/08/02 01:18:42;;;;;;;8.43;4.78;;;;;;;22.92;51.76;100097.41;5025362;28;20057;-36
2023/08/02 01:21:09;;;;;;;10.10;5.18;;;;;;;22.92;51.79;100090.13;5028772;28;20045;-36
2023/08/02 01:23:35;;;;;;;7.90;4.55;;;;;;;22.90;52.38;100108.38;5027568;28;20045;-36
2023/08/02 01:26:04;;;;;;;8.48;4.95;;;;;;;22.90;51.92;100089.44;5023360;28;20099;-36
2023/08/02 01:28:38;;;;;;;8.98;5.25;;;;;;;22.90;51.85;100078.66;5022861;28;20053;-38
2023/08/02 01:31:05;;;;;;;8.20;5.05;;;;;;;22.89;52.22;100080.53;5025655;28;20573;-37
2023/08/02 01:33:52;;;;;;;7.03;4.63;;;;;;;22.87;51.82;100061.00;5024810;28;20045;-36
2023/08/02 01:36:18;;;;;;;8.57;4.43;;;;;;;22.89;51.84;100063.47;5022603;28;20449;-36
2023/08/02 01:38:45;;;;;;;7.80;4.90;;;;;;;22.87;52.19;100058.28;5027001;28;20099;-35
2023/08/02 01:41:12;;;;;;;7.75;4.07;;;;;;;22.87;51.94;100052.03;5026119;28;20136;-36
2023/08/02 01:43:38;;;;;;;8.90;5.40;;;;;;;22.86;52.24;100047.66;5026697;28;20400;-36
2023/08/02 01:46:05;;;;;;;8.25;4.85;;;;;;;22.84;51.63;100039.78;5029727;28;20191;-37
2023/08/02 01:48:32;;;;;;;8.15;4.45;;;;;;;22.85;51.77;100046.84;5027873;28;20326;-36
2023/08/02 01:50:58;;;;;;;7.78;4.45;;;;;;;22.83;52.15;100040.78;5029984;28;20053;-36
2023/08/02 01:53:25;;;;;;;8.27;4.32;;;;;;;22.83;52.30;100037.25;5027205;28;20136;-37
2023/08/02 01:55:51;;;;;;;7.32;4.53;;;;;;;22.82;52.00;100031.03;5023766;28;20140;-36
2023/08/02 01:58:18;;;;;;;8.20;3.95;;;;;;;22.81;51.95;100023.13;5028642;28;20045;-37
2023/08/02 02:00:46;;;;;;;8.43;4.30;;;;;;;22.81;52.38;100033.94;5026414;28;20100;-36
2023/08/02 02:03:12;;;;;;;8.05;4.40;;;;;;;22.81;51.94;100020.44;5035895;28;20092;-35
2023/08/02 02:05:39;;;;;;;8.30;4.50;;;;;;;22.79;51.90;100003.56;5034839;28;20049;-36
2023/08/02 02:08:05;;;;;;;7.15;4.03;;;;;;;22.78;51.79;100010.84;5027462;28;20501;-37
2023/08/02 02:10:32;;;;;;;6.65;4.15;;;;;;;22.78;52.19;100005.44;5025640;28;20114;-36
2023/08/02 02:12:59;;;;;;;6.72;4.28;;;;;;;22.76;52.28;99983.22;5021218;28;20068;-36
2023/08/02 02:15:25;;;;;;;5.57;3.80;;;;;;;22.77;52.37;99973.25;5022138;28;20056;-36
2023/08/02 02:17:52;;;;;;;6.88;4.35;;;;;;;22.76;52.41;99974.28;5020306;28;20052;-36
2023/08/02 02:20:18;;;;;;;8.40;4.10;;;;;;;22.75;51.83;99964.50;5024250;28;20376;-37
2023/08/02 02:22:45;;;;;;;8.23;3.97;;;;;;;22.75;52.00;99954.53;5024355;28;20124;-36
2023/08/02 02:25:12;;;;;;;8.43;4.05;;;;;;;22.74;52.19;99965.56;5022039;28;20127;-37
2023/08/02 02:27:38;;;;;;;6.57;4.10;;;;;;;22.74;52.13;99960.16;5023479;28;20119;-37
2023/08/02 02:30:05;;;;;;;5.65;3.60;;;;;;;22.73;52.07;99956.63;5023883;28;20072;-37
2023/08/02 02:32:32;;;;;;;9.15;3.95;;;;;;;22.72;52.08;99946.84;5024790;28;20060;-36
2023/08/02 02:34:59;;;;;;;6.25;3.72;;;;;;;22.72;51.86;99937.94;5029841;28;20352;-36
2023/08/02 02:37:25;;;;;;;6.30;3.67;;;;;;;22.71;52.05;99936.25;5026822;28;20444;-37
2023/08/02 02:39:52;;;;;;;7.00;3.75;;;;;;;22.71;52.38;99941.66;5031029;28;20132;-35
2023/08/02 02:42:18;;;;;;;5.63;3.40;;;;;;;22.69;52.10;99943.72;5028116;28;20109;-36
2023/08/02 02:44:45;;;;;;;6.60;3.65;;;;;;;22.69;52.03;99932.94;5032114;28;20096;-37
2023/08/02 02:47:12;;;;;;;5.60;3.53;;;;;;;22.68;52.07;99932.09;5025596;28;20041;-36
2023/08/02 02:49:38;;;;;;;7.93;3.33;;;;;;;22.67;52.43;99928.56;5022210;28;20496;-36
2023/08/02 02:52:06;;;;;;;5.72;3.60;;;;;;;22.67;52.03;99915.06;5025859;28;20054;-39
2023/08/02 02:54:32;;;;;;;7.13;3.67;;;;;;;22.66;52.09;99910.69;5029831;28;20100;-35
2023/08/02 02:56:59;;;;;;;4.40;2.75;;;;;;;22.66;52.38;99910.69;5027545;28;20061;-35
2023/08/02 02:59:27;;;;;;;6.47;3.55;;;;;;;22.65;52.45;99917.13;5028184;28;20384;-36
2023/08/02 03:01:53;;;;;;;7.68;3.05;;;;;;;22.66;52.10;99918.78;5030481;28;20136;-36
2023/08/02 03:04:20;;;;;;;5.68;3.65;;;;;;;22.65;52.12;99917.13;5027831;28;20444;-36
2023/08/02 03:06:47;;;;;;;5.50;3.28;;;;;;;22.64;52.49;99907.38;5026367;28;20148;-37
2023/08/02 03:09:13;;;;;;;4.70;3.13;;;;;;;22.63;52.21;99903.00;5029399;28;20045;-39
2023/08/02 03:11:40;;;;;;;7.28;3.63;;;;;;;22.62;52.48;99893.22;5027054;28;20049;-36
2023/08/02 03:14:07;;;;;;;5.10;2.92;;;;;;;22.62;52.09;99882.41;5028578;28;20058;-36
2023/08/02 03:16:33;;;;;;;7.32;3.40;;;;;;;22.62;52.41;99868.09;5031693;28;20049;-37
2023/08/02 03:19:00;;;;;;;4.00;2.70;;;;;;;22.61;52.07;99871.84;5032068;28;20049;-36
2023/08/02 03:21:26;;;;;;;5.35;3.13;;;;;;;22.59;52.36;99863.94;5030199;28;20139;-36
2023/08/02 03:23:53;;;;;;;5.45;2.70;;;;;;;22.59;52.25;99849.59;5028058;28;20388;-37
2023/08/02 03:26:20;;;;;;;7.35;3.28;;;;;;;22.58;52.56;99835.25;5030354;28;20057;-35
2023/08/02 03:28:46;;;;;;;4.55;3.30;;;;;;;22.57;52.27;99832.78;5025603;28;20254;-36
2023/08/02 03:31:13;;;;;;;3.38;2.35;;;;;;;22.56;52.59;99837.34;5033576;28;20398;-37
2023/08/02 03:33:39;;;;;;;4.95;2.75;;;;;;;22.55;52.20;99822.19;5036492;28;20432;-39
2023/08/02 03:36:06;;;;;;;4.13;2.95;;;;;;;22.54;52.49;99839.41;5029518;28;20406;-35
2023/08/02 03:38:32;;;;;;;7.13;3.00;;;;;;;22.54;52.58;99836.72;5037785;28;20380;-36
2023/08/02 03:41:00;;;;;;;4.93;2.70;;;;;;;22.54;52.24;99833.19;5030010;28;20053;-36
2023/08/02 03:43:26;;;;;;;5.82;2.83;;;;;;;22.53;52.23;99826.97;5028918;28;20136;-37
2023/08/02 03:45:53;;;;;;;5.38;3.10;;;;;;;22.53;52.48;99818.03;5034029;28;20139;-35
2023/08/02 03:48:19;;;;;;;4.65;2.65;;;;;;;22.53;52.61;99818.84;5025042;28;20448;-36
2023/08/02 03:50:46;;;;;;;5.40;2.70;;;;;;;22.53;52.66;99815.31;5028283;28;20267;-36
2023/08/02 03:53:13;;;;;;;5.55;2.70;;;;;;;22.51;52.55;99801.19;5029232;28;20091;-36
2023/08/02 03:55:39;;;;;;;4.70;2.70;;;;;;;22.50;52.61;99794.97;5030420;28;20099;-37
2023/08/02 03:58:06;;;;;;;4.05;2.72;;;;;;;22.50;52.29;99781.47;5030064;28;20121;-36
2023/08/02 04:00:32;;;;;;;4.10;2.80;;;;;;;22.50;52.19;99781.47;5026833;28;20085;-36
2023/08/02 04:02:59;;;;;;;4.97;2.65;;;;;;;22.49;52.22;99774.41;5026967;28;20500;-36
2023/08/02 04:05:26;;;;;;;5.40;2.75;;;;;;;22.51;52.65;99774.19;5026149;28;20057;-36
2023/08/02 04:07:53;;;;;;;7.32;2.97;;;;;;;22.50;52.72;99764.44;5025557;28;20376;-36
2023/08/02 04:10:19;;;;;;;6.50;2.72;;;;;;;22.51;52.49;99766.09;5031485;28;20418;-36
2023/08/02 04:12:46;;;;;;;5.07;2.80;;;;;;;22.51;52.79;99760.69;5028479;28;20489;-36
2023/08/02 04:15:12;;;;;;;9.73;2.90;;;;;;;22.50;51.88;99751.75;5022301;28;20049;-38
2023/08/02 04:17:39;;;;;;;4.60;2.67;;;;;;;22.50;52.21;99746.34;5023217;28;20061;-36
2023/08/02 04:20:06;;;;;;;6.57;2.65;;;;;;;22.50;52.29;99740.13;5042172;28;20045;-36
2023/08/02 04:22:33;;;;;;;5.40;2.90;;;;;;;22.50;52.28;99738.25;5030716;28;20757;-38
2023/08/02 04:24:59;;;;;;;5.50;3.17;;;;;;;22.49;52.49;99731.19;5033345;28;20060;-36
2023/08/02 04:27:26;;;;;;;4.63;2.55;;;;;;;22.50;52.48;99721.22;5030980;28;20050;-36
2023/08/02 04:29:53;;;;;;;6.00;2.65;;;;;;;22.49;52.39;99706.91;5033391;28;20572;-36
2023/08/02 04:32:19;;;;;;;5.88;3.08;;;;;;;22.49;52.53;99701.50;5030664;28;20053;-37
2023/08/02 04:34:46;;;;;;;5.28;2.40;;;;;;;22.49;52.48;99709.59;5034977;28;20437;-35
2023/08/02 04:37:12;;;;;;;5.70;2.40;;;;;;;22.50;52.43;99705.03;5035630;28;20417;-35
2023/08/02 04:39:39;;;;;;;5.90;3.10;;;;;;;22.49;52.14;99701.50;5034512;28;20076;-36
2023/08/02 04:42:06;;;;;;;5.47;2.97;;;;;;;22.48;52.68;99683.66;5029750;28;20326;-36
2023/08/02 04:44:32;;;;;;;6.07;2.83;;;;;;;22.48;52.51;99677.41;5033872;28;20072;-35
2023/08/02 04:46:59;;;;;;;5.13;2.55;;;;;;;22.47;52.55;99671.16;5035261;28;20061;-36
2023/08/02 04:49:25;;;;;;;4.35;2.83;;;;;;;22.47;52.28;99673.84;5037318;28;20041;-36
2023/08/02 04:51:52;;;;;;;8.30;3.72;;;;;;;22.47;52.38;99656.84;5035184;28;20103;-36
2023/08/02 04:54:19;;;;;;;5.00;3.00;;;;;;;22.48;52.53;99650.41;5032526;28;20310;-36
2023/08/02 04:56:45;;;;;;;5.53;2.75;;;;;;;22.46;52.15;99642.50;5034939;28;20136;-35
2023/08/02 04:59:13;;;;;;;6.07;2.65;;;;;;;22.47;52.44;99637.94;5034061;28;20087;-36
2023/08/02 05:01:40;;;;;;;4.78;2.53;;;;;;;22.47;52.36;99632.53;5034040;28;20061;-35
2023/08/02 05:04:10;;;;;;;6.32;2.55;;;;;;;22.48;52.59;99620.72;5029828;28;20476;-36
2023/08/02 05:06:36;;;;;;;6.60;2.88;;;;;;;22.47;52.75;99627.97;5037302;28;20053;-37
2023/08/02 05:09:04;;;;;;;5.93;3.17;;;;;;;22.48;52.59;99628.81;5035534;28;20055;-37
2023/08/02 05:11:31;;;;;;;6.10;2.85;;;;;;;22.46;52.57;99615.50;5040397;28;20045;-36
2023/08/02 05:13:58;;;;;;;4.60;2.78;;;;;;;22.47;52.59;99617.16;5034350;28;20145;-36
2023/08/02 05:16:26;;;;;;;7.22;2.60;;;;;;;22.47;52.48;99610.94;5037835;28;20045;-36
2023/08/02 05:18:53;;;;;;;5.63;2.88;;;;;;;22.46;52.55;99596.59;5032589;28;20434;-36
2023/08/02 05:21:19;;;;;;;5.95;3.15;;;;;;;22.46;52.83;99588.50;5032825;28;20218;-36
2023/08/02 05:23:46;;;;;;;5.40;2.80;;;;;;;22.46;52.57;99583.09;5028258;28;20441;-36
2023/08/02 05:26:13;;;;;;;5.32;2.70;;;;;;;22.47;52.77;99584.75;5033928;28;20049;-36
2023/08/02 05:28:39;;;;;;;4.57;2.65;;;;;;;22.46;52.70;99568.78;5034786;28;20059;-36
2023/08/02 05:31:13;;;;;;;5.10;2.60;;;;;;;22.46;52.87;99571.47;5037184;28;20064;-35
2023/08/02 05:33:41;;;;;;;6.65;3.25;;;;;;;22.45;52.70;99565.25;5029596;28;20056;-36
2023/08/02 05:36:11;;;;;;;6.10;2.88;;;;;;;22.46;52.52;99556.09;5037744;28;20135;-37
2023/08/02 05:38:38;;;;;;;6.82;2.50;;;;;;;22.46;52.72;99547.19;5032161;28;20078;-36
2023/08/02 05:41:05;;;;;;;7.15;2.50;;;;;;;22.45;52.65;99546.34;5033202;28;20038;-36
2023/08/02 05:43:31;;;;;;;4.80;2.40;;;;;;;22.44;52.90;99542.00;5030216;28;20080;-36
2023/08/02 05:45:58;;;;;;;4.30;2.60;;;;;;;22.45;52.86;99534.72;5031019;28;20468;-36
2023/08/02 05:48:25;;;;;;;4.07;2.53;;;;;;;22.45;52.73;99529.31;5031982;28;20051;-35
2023/08/02 05:50:52;;;;;;;6.15;3.22;;;;;;;22.45;52.92;99524.75;5026642;28;20385;-35
2023/08/02 05:53:18;;;;;;;4.20;2.90;;;;;;;22.45;52.67;99513.94;5024513;28;20130;-36
2023/08/02 05:55:45;;;;;;;7.28;2.78;;;;;;;22.44;52.50;99509.59;5028789;28;20137;-37
2023/08/02 05:58:12;;;;;;;4.78;2.75;;;;;;;22.44;52.87;99509.59;5025299;28;20099;-37
2023/08/02 06:00:38;;;;;;;5.43;2.67;;;;;;;22.44;52.81;99492.56;5029460;28;20110;-36
2023/08/02 06:03:05;;;;;;;5.55;2.65;;;;;;;22.44;52.30;99489.88;5033615;28;20103;-39
2023/08/02 06:05:32;;;;;;;4.05;2.40;;;;;;;22.43;52.95;99486.31;5036961;28;20053;-36
2023/08/02 06:07:59;;;;;;;5.28;2.70;;;;;;;22.42;52.63;99485.50;5038605;28;20479;-36
2023/08/02 06:10:26;;;;;;;5.35;2.58;;;;;;;22.43;52.70;99475.53;5040190;28;20056;-36
2023/08/02 06:12:52;;;;;;;4.10;2.35;;;;;;;22.41;53.10;99467.66;5033922;28;20345;-37
2023/08/02 06:15:19;;;;;;;4.65;2.65;;;;;;;22.41;53.01;99473.06;5036192;28;20045;-36
2023/08/02 06:17:45;;;;;;;5.00;2.70;;;;;;;22.42;53.04;99465.78;5033353;28;20089;-38
2023/08/02 06:20:12;;;;;;;5.32;2.78;;;;;;;22.41;52.83;99459.56;5036222;28;20045;-36
2023/08/02 06:22:40;;;;;;;4.18;2.70;;;;;;;22.41;52.68;99456.84;5036012;28;20080;-36
2023/08/02 06:25:07;;;;;;;4.22;2.67;;;;;;;22.41;52.57;99448.75;5038875;28;20140;-36
2023/08/02 06:27:33;;;;;;;4.43;2.67;;;;;;;22.41;53.22;99448.75;5037391;28;20429;-35
2023/08/02 06:30:00;;;;;;;4.20;2.67;;;;;;;22.39;53.00;99434.66;5033477;28;20049;-36
2023/08/02 06:32:27;;;;;;;5.80;2.90;;;;;;;22.40;52.79;99430.91;5038061;28;20091;-35
2023/08/02 06:34:54;;;;;;;3.85;2.63;;;;;;;22.40;53.04;99419.28;5039625;28;20076;-36
2023/08/02 06:37:20;;;;;;;3.70;2.72;;;;;;;22.39;52.68;99410.38;5035829;28;20410;-36
2023/08/02 06:39:47;;;;;;;4.10;2.70;;;;;;;22.39;52.97;99413.06;5036239;28;20061;-35
2023/08/02 06:42:13;;;;;;;4.38;2.55;;;;;;;22.40;52.98;99411.19;5039726;28;20046;-38
2023/08/02 06:44:40;;;;;;;4.22;2.45;;;;;;;22.38;52.99;99397.88;5040163;28;20056;-36
2023/08/02 06:47:07;;;;;;;4.07;2.67;;;;;;;22.38;53.01;99383.56;5037832;28;20049;-36
2023/08/02 06:49:34;;;;;;;4.43;2.50;;;;;;;22.39;53.24;99377.09;5036854;28;20392;-36
2023/08/02 06:52:01;;;;;;;5.03;2.63;;;;;;;22.39;52.97;99366.31;5040382;28;20049;-39
2023/08/02 06:54:28;;;;;;;5.03;2.60;;;;;;;22.38;52.60;99357.38;5038475;28;21266;-37
2023/08/02 06:56:55;;;;;;;4.03;2.60;;;;;;;22.39;53.11;99358.22;5034268;28;20137;-36
2023/08/02 06:59:21;;;;;;;4.10;2.50;;;;;;;22.39;52.93;99350.13;5033821;28;20049;-38
2023/08/02 07:01:52;;;;;;;5.90;2.63;;;;;;;22.40;52.93;99338.28;5035834;28;20045;-36
2023/08/02 07:04:18;;;;;;;3.25;2.28;;;;;;;22.39;53.19;99332.06;5035398;28;20049;-37
2023/08/02 07:06:45;;;;;;;4.18;2.70;;;;;;;22.41;53.24;99327.25;5034491;28;20396;-37
2023/08/02 07:09:12;;;;;;;4.25;2.85;;;;;;;22.42;53.03;99317.28;5035861;28;20128;-37
2023/08/02 07:11:38;;;;;;;4.00;2.47;;;;;;;22.42;53.36;99311.88;5035853;28;20052;-37
2023/08/02 07:14:05;;;;;;;3.95;2.38;;;;;;;22.41;53.09;99308.38;5035441;28;20151;-36
2023/08/02 07:16:32;;;;;;;4.07;2.28;;;;;;;22.42;53.21;99307.31;5033521;28;20041;-35
2023/08/02 07:19:02;;;;;;;4.15;2.60;;;;;;;22.42;53.15;99301.91;5032120;28;20136;-36
2023/08/02 07:21:30;;;;;;;4.20;2.25;;;;;;;22.42;52.93;99295.69;5030297;28;20140;-36
2023/08/02 07:23:57;;;;;;;3.85;2.45;;;;;;;22.41;52.96;99285.94;5032006;28;20042;-37
2023/08/02 07:26:23;;;;;;;3.75;2.55;;;;;;;22.41;52.89;99278.66;5032490;28;20136;-38
2023/08/02 07:28:50;;;;;;;4.85;2.50;;;;;;;22.41;53.24;99270.56;5037754;28;20117;-35
2023/08/02 07:31:16;;;;;;;7.72;3.10;;;;;;;22.41;52.78;99257.06;5037729;28;20143;-35
2023/08/02 07:33:45;;;;;;;5.75;2.83;;;;;;;22.41;53.32;99251.66;5034865;28;20052;-37
2023/08/02 07:36:16;;;;;;;3.00;2.30;;;;;;;22.41;53.29;99250.84;5038198;28;20408;-37
2023/08/02 07:38:44;;;;;;;4.68;2.60;;;;;;;22.40;53.22;99241.94;5036875;28;20069;-36
2023/08/02 07:41:11;;;;;;;4.10;2.50;;;;;;;22.41;53.19;99237.34;5042558;28;20038;-36
2023/08/02 07:43:38;;;;;;;5.40;2.47;;;;;;;22.41;52.99;99232.78;5027536;28;20107;-37
2023/08/02 07:46:06;;;;;;;4.43;2.25;;;;;;;22.40;53.20;99228.44;5030408;28;20044;-36
2023/08/02 07:48:32;;;;;;;4.55;2.40;;;;;;;22.40;53.27;99217.63;5026013;28;20045;-36
2023/08/02 07:51:03;;;;;;;5.00;2.42;;;;;;;22.41;53.70;99215.75;5039433;28;20434;-36
2023/08/02 07:53:30;;;;;;;3.58;2.42;;;;;;;22.41;53.29;99204.94;5039710;28;20402;-35
2023/08/02 07:56:03;;;;;;;4.82;2.15;;;;;;;22.40;53.56;99203.31;5035709;28;20080;-36
2023/08/02 07:58:29;;;;;;;5.47;2.10;;;;;;;22.41;53.23;99204.94;5031793;28;20149;-39
2023/08/02 08:00:56;;;;;;;4.25;2.20;;;;;;;22.42;53.10;99198.50;5034503;28;20571;-39
2023/08/02 08:03:22;;;;;;;4.57;2.20;;;;;;;22.41;53.07;99194.97;5038656;28;20041;-37
2023/08/02 08:05:49;;;;;;;3.20;2.10;;;;;;;22.42;53.21;99180.41;5034220;28;20057;-36
2023/08/02 08:08:16;;;;;;;2.75;2.00;;;;;;;22.42;53.28;99183.13;5025478;28;20056;-36
2023/08/02 08:10:49;;;;;;;2.63;1.88;;;;;;;22.41;53.35;99178.78;5025787;28;20306;-37
2023/08/02 08:13:16;;;;;;;3.38;2.00;;;;;;;22.42;53.47;99172.31;5023600;28;20057;-38
2023/08/02 08:15:43;;;;;;;4.28;2.17;;;;;;;22.44;53.32;99164.03;5025356;28;20045;-38
2023/08/02 08:18:10;;;;;;;4.20;1.83;;;;;;;22.43;53.32;99167.75;5020967;28;20050;-37
2023/08/02 08:20:37;;;;;;;3.38;2.00;;;;;;;22.42;53.21;99172.31;5023262;28;20046;-36
2023/08/02 08:23:03;;;;;;;3.30;2.05;;;;;;;22.42;53.50;99166.94;5029096;28;20049;-37
2023/08/02 08:25:31;;;;;;;3.28;1.83;;;;;;;22.42;53.60;99168.81;5031188;28;20107;-36
2023/08/02 08:27:57;;;;;;;2.63;1.67;;;;;;;22.42;53.53;99166.09;5024852;28;20091;-37
2023/08/02 08:30:24;;;;;;;2.28;1.48;;;;;;;22.41;53.60;99149.09;5027469;28;20077;-37
2023/08/02 08:32:50;;;;;;;2.03;1.48;;;;;;;22.41;53.26;99156.38;5027278;28;20403;-37
2023/08/02 08:35:17;;;;;;;2.10;1.63;;;;;;;22.41;53.52;99140.97;5028070;28;20451;-36
2023/08/02 08:37:44;;;;;;;2.40;1.58;;;;;;;22.42;53.52;99129.13;5031866;28;20471;-36
2023/08/02 08:40:16;;;;;;;2.33;1.40;;;;;;;22.43;53.89;99151.53;5031381;28;20045;-39
2023/08/02 08:42:48;;;;;;;2.30;1.70;;;;;;;22.42;53.72;99142.63;5031683;28;20111;-36
2023/08/02 08:45:18;;;;;;;2.13;1.40;;;;;;;22.44;54.07;99134.31;5028627;28;20049;-36
2023/08/02 08:47:46;;;;;;;2.30;1.45;;;;;;;22.45;53.94;99129.75;5028860;28;20437;-37
2023/08/02 08:50:13;;;;;;;2.13;1.40;;;;;;;22.45;54.09;99133.25;5029808;28;20135;-36
2023/08/02 08:52:41;;;;;;;2.45;1.52;;;;;;;22.46;53.76;99124.09;5030829;28;20123;-36
2023/08/02 08:55:08;;;;;;;3.65;1.38;;;;;;;22.48;53.99;99121.22;5039373;28;20071;-36
2023/08/02 08:57:36;;;;;;;1.48;1.05;;;;;;;22.50;53.90;99119.09;5032048;28;20055;-38
2023/08/02 09:00:08;;;;;;;3.50;1.45;;;;;;;22.52;53.91;99122.41;5032686;28;20045;-37
2023/08/02 09:02:38;;;;;;;2.20;1.42;;;;;;;22.54;53.75;99109.50;5036724;28;20097;-36
2023/08/02 09:05:07;;;;;;;1.20;0.93;;;;;;;22.56;54.05;99108.22;5034747;28;20053;-37
2023/08/02 09:07:34;;;;;;;2.22;1.10;;;;;;;22.58;53.77;99105.28;5032916;28;20053;-36
2023/08/02 09:10:01;;;;;;;2.28;1.38;;;;;;;22.59;53.94;99093.44;5033863;28;20053;-39
2023/08/02 09:12:29;;;;;;;1.95;1.20;;;;;;;22.62;54.36;99095.69;5036178;28;20049;-36
2023/08/02 09:15:04;;;;;;;2.13;1.45;;;;;;;22.64;54.27;99094.41;5031884;28;20460;-36
2023/08/02 09:17:49;;;;;;;2.38;1.10;;;;;;;22.66;54.25;99096.88;5036160;28;20123;-37
2023/08/02 09:20:18;;;;;;;1.92;1.20;;;;;;;22.69;53.95;99088.31;5034130;28;20045;-38
2023/08/02 09:22:45;;;;;;;1.77;1.20;;;;;;;22.71;53.90;99086.22;5026857;28;20491;-37
2023/08/02 09:25:23;;;;;;;2.15;1.00;;;;;;;22.70;53.85;99075.66;5025940;28;20072;-36
2023/08/02 09:27:51;;;;;;;2.20;1.10;;;;;;;22.71;53.98;99077.28;5024247;28;20155;-37
2023/08/02 09:30:27;;;;;;;1.67;1.33;;;;;;;22.71;54.05;99072.72;5025762;28;20341;-37
2023/08/02 09:33:04;;;;;;;1.45;1.00;;;;;;;22.71;54.36;99064.59;5026588;28;20084;-35
2023/08/02 09:35:51;;;;;;;1.15;1.00;;;;;;;22.72;54.05;99073.56;5030470;28;20449;-37
2023/08/02 09:38:18;;;;;;;1.73;0.82;;;;;;;22.73;54.02;99076.03;5031342;28;20421;-37
2023/08/02 09:40:48;;;;;;;1.60;0.90;;;;;;;22.75;54.36;99073.06;5032423;28;20456;-36
2023/08/02 09:43:18;;;;;;;2.72;1.00;;;;;;;22.76;54.55;99070.16;5030768;28;20080;-36
2023/08/02 09:45:45;;;;;;;1.70;0.98;;;;;;;22.78;54.92;99065.34;5031155;28;20049;-38
2023/08/02 09:48:12;;;;;;;1.80;1.13;;;;;;;22.80;55.21;99067.84;5028738;28;20052;-37
2023/08/02 09:50:55;;;;;;;1.70;0.90;;;;;;;22.81;55.70;99054.09;5031335;28;20083;-38
2023/08/02 09:53:24;;;;;;;1.30;1.00;;;;;;;22.85;55.11;99054.47;5034632;28;20055;-37
2023/08/02 09:55:51;;;;;;;1.30;0.90;;;;;;;22.87;55.82;99063.16;5032481;28;20145;-37
2023/08/02 09:58:20;;;;;;;2.47;1.15;;;;;;;22.90;55.65;99058.16;5029309;28;20053;-37
2023/08/02 10:00:47;;;;;;;2.08;0.90;;;;;;;22.92;54.90;99060.63;5036327;28;20523;-38
2023/08/02 10:03:15;;;;;;;1.13;1.00;;;;;;;22.95;54.58;99054.75;5032628;28;20380;-37
2023/08/02 10:05:53;;;;;;;1.02;0.90;;;;;;;22.97;54.50;99044.56;5031815;28;20056;-36
2023/08/02 10:08:21;;;;;;;2.70;1.10;;;;;;;22.98;54.62;99051.59;5027070;28;20053;-36
2023/08/02 10:10:48;;;;;;;1.13;0.90;;;;;;;23.01;54.11;99044.91;5030679;28;20045;-37
2023/08/02 10:13:21;;;;;;;2.30;1.25;;;;;;;23.02;54.16;99041.97;5028056;28;20052;-36
2023/08/02 10:15:51;;;;;;;1.67;0.82;;;;;;;23.05;54.20;99032.59;5031366;28;20131;-36
2023/08/02 10:18:20;;;;;;;0.82;0.77;;;;;;;23.09;53.97;99028.38;5028195;28;20049;-39
2023/08/02 10:20:48;;;;;;;1.75;0.70;;;;;;;23.10;53.84;99027.31;5029886;28;20052;-36
2023/08/02 10:23:14;;;;;;;1.23;0.85;;;;;;;23.13;53.65;99034.97;5032192;28;20137;-36
2023/08/02 10:25:42;;;;;;;0.75;0.70;;;;;;;23.15;53.79;99022.84;5028184;28;20515;-37
2023/08/02 10:28:11;;;;;;;1.73;1.00;;;;;;;23.20;53.39;99027.59;5034162;28;20050;-38
2023/08/02 10:30:38;;;;;;;1.60;1.00;;;;;;;23.22;53.25;99022.75;5029222;28;20050;-38
2023/08/02 10:33:19;;;;;;;0.55;0.55;;;;;;;23.26;53.38;99009.59;5021264;28;20045;-37
2023/08/02 10:36:08;;;;;;;1.20;0.90;;;;;;;23.31;53.33;99007.84;5024700;28;20049;-37
2023/08/02 10:38:37;;;;;;;1.00;0.77;;;;;;;23.36;53.21;98997.16;5024616;28;20346;-37
2023/08/02 10:41:09;;;;;;;0.90;0.70;;;;;;;23.42;53.16;98991.88;5026579;28;20077;-37
2023/08/02 10:43:54;;;;;;;1.25;0.82;;;;;;;23.46;52.85;98995.75;5031988;28;20448;-37
2023/08/02 10:46:29;;;;;;;1.75;0.70;;;;;;;23.49;53.01;98989.88;5028506;28;20076;-38
2023/08/02 10:49:16;;;;;;;2.20;0.68;;;;;;;23.54;53.27;99001.63;5021900;28;20086;-37
2023/08/02 10:51:45;;;;;;;2.30;0.90;;;;;;;23.60;53.30;98989.88;5015436;28;20144;-39
2023/08/02 10:54:19;;;;;;;1.25;0.82;;;;;;;23.64;52.75;98992.94;5027132;28;20068;-37
2023/08/02 10:56:52;;;;;;;1.33;0.60;;;;;;;23.69;52.73;98970.63;5027942;28;20052;-36
2023/08/02 10:59:25;;;;;;;1.60;0.82;;;;;;;23.74;52.62;98976.97;5028632;28;20483;-35
2023/08/02 11:02:25;;;;;;;1.30;0.60;;;;;;;23.79;53.31;98997.91;5028987;28;20136;-36
2023/08/02 11:04:52;;;;;;;1.88;0.80;;;;;;;23.85;52.65;98968.03;5037949;28;20140;-36
2023/08/02 11:07:21;;;;;;;2.53;0.98;;;;;;;23.89;52.60;98966.47;5036158;28;20060;-35
2023/08/02 11:09:51;;;;;;;2.03;0.90;;;;;;;23.94;53.20;98963.06;5037948;28;20472;-35
2023/08/02 11:12:19;;;;;;;1.67;1.08;;;;;;;23.98;52.67;98977.75;5035520;28;20107;-36
2023/08/02 11:14:49;;;;;;;1.80;0.70;;;;;;;24.00;52.80;98972.09;5033647;28;20103;-36
2023/08/02 11:17:20;;;;;;;3.67;0.80;;;;;;;24.02;53.20;98976.22;5034931;28;20484;-36
2023/08/02 11:19:52;;;;;;;2.38;1.15;;;;;;;24.04;52.51;98978.69;5032672;28;20057;-36
2023/08/02 11:22:21;;;;;;;2.05;0.80;;;;;;;24.03;52.75;98991.38;5036105;28;20584;-35
2023/08/02 11:24:53;;;;;;;1.17;0.70;;;;;;;24.04;52.50;98984.09;5032833;28;20073;-35
2023/08/02 11:27:22;;;;;;;2.88;0.90;;;;;;;24.06;52.90;98974.69;5031233;28;20525;-35
2023/08/02 11:29:59;;;;;;;3.08;0.80;;;;;;;24.07;52.21;98987.16;5035933;28;20533;-35
2023/08/02 11:32:27;;;;;;;2.63;1.02;;;;;;;24.07;52.28;98979.03;5034248;28;20342;-36
2023/08/02 11:34:54;;;;;;;2.67;1.10;;;;;;;24.09;52.06;98978.81;5033905;28;20049;-35
2023/08/02 11:37:22;;;;;;;1.48;1.05;;;;;;;24.11;52.39;98976.66;5031286;28;20140;-36